西安 の空港の天気 - METARとTAF

西安咸陽国際空港 ( ZLXY / XIY ) - 中国 陝西省西安市
飛行場実況気象(Metar)
観測時間12/14 14:00 CST (12/14 06:00 UTC)
風向・風速東北東 4m/s
視程4000m
天気現象煙霧
全天の8割程度の雲 雲底高度 2130m
気温2℃
湿度29%
気圧1030hPa
METARZLXY 140600Z 07004MPS 030V100 4000 HZ BKN070 02/M14 Q1030 NOSIG
過去の天気等 Google飛行場航空写真 Wunderground天気予報

過去48時間のMETAR

飛行場予報(TAF)
発表時間: 12/14 11:06 CST (12/14 03:06 UTC)
予報対象時間: 14日14時 CST ~ 15日14時 CST
風向・風速東北東 3m/s
視程3000m
天気現象煙霧
なし
TAF ZLXY 140306Z 1406/1506 06003MPS 3000 HZ NSC TX05/1407Z TNM06/22Z